sensor_id;sensor_type;location;lat;lon;timestamp;temperature;humidity
5846;DHT22;2949;50.778;7.094;2024-01-15T00:00:40;1.60;99.90
5846;DHT22;2949;50.778;7.094;2024-01-15T00:03:05;1.70;99.90
5846;DHT22;2949;50.778;7.094;2024-01-15T00:05:31;1.70;99.90
5846;DHT22;2949;50.778;7.094;2024-01-15T00:07:56;1.60;99.90
5846;DHT22;2949;50.778;7.094;2024-01-15T00:10:22;1.60;99.90
5846;DHT22;2949;50.778;7.094;2024-01-15T00:12:48;1.70;99.90
5846;DHT22;2949;50.778;7.094;2024-01-15T00:15:13;1.60;99.90
5846;DHT22;2949;50.778;7.094;2024-01-15T00:17:39;1.60;99.90
5846;DHT22;2949;50.778;7.094;2024-01-15T00:20:05;1.70;99.90
5846;DHT22;2949;50.778;7.094;2024-01-15T00:22:31;1.70;99.90
5846;DHT22;2949;50.778;7.094;2024-01-15T00:24:57;1.70;99.90
5846;DHT22;2949;50.778;7.094;2024-01-15T00:27:23;1.70;99.90
5846;DHT22;2949;50.778;7.094;2024-01-15T00:29:49;1.60;99.90
5846;DHT22;2949;50.778;7.094;2024-01-15T00:32:15;1.60;99.90
5846;DHT22;2949;50.778;7.094;2024-01-15T00:34:41;1.60;99.90
5846;DHT22;2949;50.778;7.094;2024-01-15T00:37:06;1.60;99.90
5846;DHT22;2949;50.778;7.094;2024-01-15T00:39:32;1.60;99.90
5846;DHT22;2949;50.778;7.094;2024-01-15T00:41:58;1.50;99.90
5846;DHT22;2949;50.778;7.094;2024-01-15T00:44:23;1.50;99.90
5846;DHT22;2949;50.778;7.094;2024-01-15T00:46:49;1.50;99.90
5846;DHT22;2949;50.778;7.094;2024-01-15T00:49:15;1.50;99.90
5846;DHT22;2949;50.778;7.094;2024-01-15T00:51:41;1.50;99.90
5846;DHT22;2949;50.778;7.094;2024-01-15T00:54:07;1.50;99.90
5846;DHT22;2949;50.778;7.094;2024-01-15T00:56:32;1.50;99.90
5846;DHT22;2949;50.778;7.094;2024-01-15T00:58:58;1.50;99.90
5846;DHT22;2949;50.778;7.094;2024-01-15T01:01:23;1.50;99.90
5846;DHT22;2949;50.778;7.094;2024-01-15T01:03:49;1.40;99.90
5846;DHT22;2949;50.778;7.094;2024-01-15T01:06:14;1.40;99.90
5846;DHT22;2949;50.778;7.094;2024-01-15T01:08:40;1.40;99.90
5846;DHT22;2949;50.778;7.094;2024-01-15T01:11:05;1.40;99.90
5846;DHT22;2949;50.778;7.094;2024-01-15T01:13:32;1.40;99.90
5846;DHT22;2949;50.778;7.094;2024-01-15T01:15:58;1.30;99.90
5846;DHT22;2949;50.778;7.094;2024-01-15T01:18:23;1.30;99.90
5846;DHT22;2949;50.778;7.094;2024-01-15T01:20:49;1.30;99.90
5846;DHT22;2949;50.778;7.094;2024-01-15T01:23:15;1.30;99.90
5846;DHT22;2949;50.778;7.094;2024-01-15T01:25:40;1.30;99.90
5846;DHT22;2949;50.778;7.094;2024-01-15T01:28:06;1.30;99.90
5846;DHT22;2949;50.778;7.094;2024-01-15T01:30:31;1.40;99.90
5846;DHT22;2949;50.778;7.094;2024-01-15T01:32:57;1.40;99.90
5846;DHT22;2949;50.778;7.094;2024-01-15T01:35:22;1.40;99.90
5846;DHT22;2949;50.778;7.094;2024-01-15T01:37:48;1.30;99.90
5846;DHT22;2949;50.778;7.094;2024-01-15T01:40:14;1.30;99.90
5846;DHT22;2949;50.778;7.094;2024-01-15T01:42:39;1.20;99.90
5846;DHT22;2949;50.778;7.094;2024-01-15T01:45:05;1.20;99.90
5846;DHT22;2949;50.778;7.094;2024-01-15T01:47:31;1.10;99.90
5846;DHT22;2949;50.778;7.094;2024-01-15T01:49:57;1.00;99.90
5846;DHT22;2949;50.778;7.094;2024-01-15T01:52:23;0.90;99.90
5846;DHT22;2949;50.778;7.094;2024-01-15T01:54:49;0.90;99.90
5846;DHT22;2949;50.778;7.094;2024-01-15T01:57:15;0.80;99.90
5846;DHT22;2949;50.778;7.094;2024-01-15T01:59:41;0.80;99.90
5846;DHT22;2949;50.778;7.094;2024-01-15T02:02:07;0.80;99.90
5846;DHT22;2949;50.778;7.094;2024-01-15T02:04:32;0.80;99.90
5846;DHT22;2949;50.778;7.094;2024-01-15T02:06:59;0.80;99.90
5846;DHT22;2949;50.778;7.094;2024-01-15T02:09:25;0.90;99.90
5846;DHT22;2949;50.778;7.094;2024-01-15T02:11:51;0.90;99.90
5846;DHT22;2949;50.778;7.094;2024-01-15T02:14:16;1.00;99.90
5846;DHT22;2949;50.778;7.094;2024-01-15T02:16:43;1.00;99.90
5846;DHT22;2949;50.778;7.094;2024-01-15T02:19:15;1.10;99.90
5846;DHT22;2949;50.778;7.094;2024-01-15T02:21:40;1.10;99.90
5846;DHT22;2949;50.778;7.094;2024-01-15T02:24:06;1.10;99.90
5846;DHT22;2949;50.778;7.094;2024-01-15T02:26:31;1.10;99.90
5846;DHT22;2949;50.778;7.094;2024-01-15T02:29:01;1.10;99.90
5846;DHT22;2949;50.778;7.094;2024-01-15T02:31:27;1.10;99.90
5846;DHT22;2949;50.778;7.094;2024-01-15T02:33:52;1.10;99.90
5846;DHT22;2949;50.778;7.094;2024-01-15T02:36:18;1.10;99.90
5846;DHT22;2949;50.778;7.094;2024-01-15T02:38:43;1.10;99.90
5846;DHT22;2949;50.778;7.094;2024-01-15T02:41:09;1.10;99.90
5846;DHT22;2949;50.778;7.094;2024-01-15T02:43:34;1.10;99.90
5846;DHT22;2949;50.778;7.094;2024-01-15T02:46:00;1.10;99.90
5846;DHT22;2949;50.778;7.094;2024-01-15T02:48:25;1.10;99.90
5846;DHT22;2949;50.778;7.094;2024-01-15T02:50:51;1.10;99.90
5846;DHT22;2949;50.778;7.094;2024-01-15T02:53:16;1.10;99.90
5846;DHT22;2949;50.778;7.094;2024-01-15T02:55:42;1.10;99.90
5846;DHT22;2949;50.778;7.094;2024-01-15T02:58:08;1.10;99.90
5846;DHT22;2949;50.778;7.094;2024-01-15T03:00:33;1.10;99.90
5846;DHT22;2949;50.778;7.094;2024-01-15T03:02:59;1.10;99.90
5846;DHT22;2949;50.778;7.094;2024-01-15T03:05:24;1.10;99.90
5846;DHT22;2949;50.778;7.094;2024-01-15T03:07:50;1.10;99.90
5846;DHT22;2949;50.778;7.094;2024-01-15T03:10:15;1.10;99.90
5846;DHT22;2949;50.778;7.094;2024-01-15T03:12:41;1.10;99.90
5846;DHT22;2949;50.778;7.094;2024-01-15T03:15:06;1.20;99.90
5846;DHT22;2949;50.778;7.094;2024-01-15T03:17:32;1.10;99.90
5846;DHT22;2949;50.778;7.094;2024-01-15T03:19:57;1.10;99.90
5846;DHT22;2949;50.778;7.094;2024-01-15T03:22:23;1.10;99.90
5846;DHT22;2949;50.778;7.094;2024-01-15T03:24:48;1.10;99.90
5846;DHT22;2949;50.778;7.094;2024-01-15T03:27:14;1.20;99.90
5846;DHT22;2949;50.778;7.094;2024-01-15T03:29:40;1.10;99.90
5846;DHT22;2949;50.778;7.094;2024-01-15T03:32:06;1.20;99.90
5846;DHT22;2949;50.778;7.094;2024-01-15T03:34:31;1.20;99.90
5846;DHT22;2949;50.778;7.094;2024-01-15T03:36:57;1.20;99.90
5846;DHT22;2949;50.778;7.094;2024-01-15T03:39:24;1.10;99.90
5846;DHT22;2949;50.778;7.094;2024-01-15T03:41:49;1.10;99.90
5846;DHT22;2949;50.778;7.094;2024-01-15T03:44:15;1.10;99.90
5846;DHT22;2949;50.778;7.094;2024-01-15T03:46:40;1.00;99.90
5846;DHT22;2949;50.778;7.094;2024-01-15T03:49:06;1.00;99.90
5846;DHT22;2949;50.778;7.094;2024-01-15T03:51:31;1.00;99.90
5846;DHT22;2949;50.778;7.094;2024-01-15T03:53:57;1.00;99.90
5846;DHT22;2949;50.778;7.094;2024-01-15T03:56:22;1.10;99.90
5846;DHT22;2949;50.778;7.094;2024-01-15T03:58:48;1.00;99.90
5846;DHT22;2949;50.778;7.094;2024-01-15T04:01:13;1.00;99.90
5846;DHT22;2949;50.778;7.094;2024-01-15T04:03:39;1.10;99.90
5846;DHT22;2949;50.778;7.094;2024-01-15T04:06:04;1.00;99.90
5846;DHT22;2949;50.778;7.094;2024-01-15T04:08:30;1.00;99.90
5846;DHT22;2949;50.778;7.094;2024-01-15T04:10:56;1.10;99.90
5846;DHT22;2949;50.778;7.094;2024-01-15T04:13:22;1.10;99.90
5846;DHT22;2949;50.778;7.094;2024-01-15T04:15:47;1.10;99.90
5846;DHT22;2949;50.778;7.094;2024-01-15T04:18:13;1.10;99.90
5846;DHT22;2949;50.778;7.094;2024-01-15T04:20:38;1.10;99.90
5846;DHT22;2949;50.778;7.094;2024-01-15T04:23:04;1.10;99.90
5846;DHT22;2949;50.778;7.094;2024-01-15T04:25:30;1.10;99.90
5846;DHT22;2949;50.778;7.094;2024-01-15T04:27:56;1.10;99.90
5846;DHT22;2949;50.778;7.094;2024-01-15T04:30:21;1.10;99.90
5846;DHT22;2949;50.778;7.094;2024-01-15T04:32:47;1.10;99.90
5846;DHT22;2949;50.778;7.094;2024-01-15T04:35:12;1.10;99.90
5846;DHT22;2949;50.778;7.094;2024-01-15T04:37:39;1.10;99.90
5846;DHT22;2949;50.778;7.094;2024-01-15T04:40:05;1.00;99.90
5846;DHT22;2949;50.778;7.094;2024-01-15T04:42:30;1.10;99.90
5846;DHT22;2949;50.778;7.094;2024-01-15T04:44:56;1.10;99.90
5846;DHT22;2949;50.778;7.094;2024-01-15T04:47:22;1.10;99.90
5846;DHT22;2949;50.778;7.094;2024-01-15T04:49:47;1.10;99.90
5846;DHT22;2949;50.778;7.094;2024-01-15T04:52:14;1.00;99.90
5846;DHT22;2949;50.778;7.094;2024-01-15T04:54:40;1.00;99.90
5846;DHT22;2949;50.778;7.094;2024-01-15T04:57:05;1.00;99.90
5846;DHT22;2949;50.778;7.094;2024-01-15T04:59:31;1.00;99.90
5846;DHT22;2949;50.778;7.094;2024-01-15T05:01:56;0.90;99.90
5846;DHT22;2949;50.778;7.094;2024-01-15T05:04:22;0.90;99.90
5846;DHT22;2949;50.778;7.094;2024-01-15T05:06:48;0.90;99.90
5846;DHT22;2949;50.778;7.094;2024-01-15T05:09:13;1.00;99.90
5846;DHT22;2949;50.778;7.094;2024-01-15T05:11:39;1.00;99.90
5846;DHT22;2949;50.778;7.094;2024-01-15T05:14:05;1.00;99.90
5846;DHT22;2949;50.778;7.094;2024-01-15T05:16:30;1.00;99.90
5846;DHT22;2949;50.778;7.094;2024-01-15T05:18:56;1.00;99.90
5846;DHT22;2949;50.778;7.094;2024-01-15T05:21:21;1.00;99.90
5846;DHT22;2949;50.778;7.094;2024-01-15T05:23:47;1.10;99.90
5846;DHT22;2949;50.778;7.094;2024-01-15T05:26:12;1.20;99.90
5846;DHT22;2949;50.778;7.094;2024-01-15T05:28:38;1.20;99.90
5846;DHT22;2949;50.778;7.094;2024-01-15T05:31:03;1.20;99.90
5846;DHT22;2949;50.778;7.094;2024-01-15T05:33:29;1.20;99.90
5846;DHT22;2949;50.778;7.094;2024-01-15T05:35:55;1.30;99.90
5846;DHT22;2949;50.778;7.094;2024-01-15T05:38:20;1.30;99.90
5846;DHT22;2949;50.778;7.094;2024-01-15T05:40:46;1.30;99.90
5846;DHT22;2949;50.778;7.094;2024-01-15T05:43:11;1.30;99.90
5846;DHT22;2949;50.778;7.094;2024-01-15T05:45:38;1.20;99.90
5846;DHT22;2949;50.778;7.094;2024-01-15T05:48:04;1.20;99.90
5846;DHT22;2949;50.778;7.094;2024-01-15T05:50:30;1.10;99.90
5846;DHT22;2949;50.778;7.094;2024-01-15T05:52:56;1.10;99.90
5846;DHT22;2949;50.778;7.094;2024-01-15T05:55:21;1.00;99.90
5846;DHT22;2949;50.778;7.094;2024-01-15T05:57:47;0.90;99.90
5846;DHT22;2949;50.778;7.094;2024-01-15T06:00:12;0.90;99.90
5846;DHT22;2949;50.778;7.094;2024-01-15T06:02:38;0.90;99.90
5846;DHT22;2949;50.778;7.094;2024-01-15T06:05:05;0.90;99.90
5846;DHT22;2949;50.778;7.094;2024-01-15T06:07:31;1.00;99.90
5846;DHT22;2949;50.778;7.094;2024-01-15T06:09:57;1.00;99.90
5846;DHT22;2949;50.778;7.094;2024-01-15T06:12:22;1.20;99.90
5846;DHT22;2949;50.778;7.094;2024-01-15T06:14:48;1.20;99.90
5846;DHT22;2949;50.778;7.094;2024-01-15T06:17:14;1.30;99.90
5846;DHT22;2949;50.778;7.094;2024-01-15T06:19:39;1.30;99.90
5846;DHT22;2949;50.778;7.094;2024-01-15T06:22:05;1.30;99.90
5846;DHT22;2949;50.778;7.094;2024-01-15T06:24:30;1.30;99.90
5846;DHT22;2949;50.778;7.094;2024-01-15T06:26:56;1.30;99.90
5846;DHT22;2949;50.778;7.094;2024-01-15T06:29:22;1.30;99.90
5846;DHT22;2949;50.778;7.094;2024-01-15T06:31:49;1.30;99.90
5846;DHT22;2949;50.778;7.094;2024-01-15T06:34:15;1.40;99.90
5846;DHT22;2949;50.778;7.094;2024-01-15T06:36:40;1.40;99.90
5846;DHT22;2949;50.778;7.094;2024-01-15T06:39:06;1.40;99.90
5846;DHT22;2949;50.778;7.094;2024-01-15T06:41:31;1.30;99.90
5846;DHT22;2949;50.778;7.094;2024-01-15T06:43:57;1.40;99.90
5846;DHT22;2949;50.778;7.094;2024-01-15T06:46:23;1.30;99.90
5846;DHT22;2949;50.778;7.094;2024-01-15T06:48:49;1.30;99.90
5846;DHT22;2949;50.778;7.094;2024-01-15T06:51:16;1.30;99.90
5846;DHT22;2949;50.778;7.094;2024-01-15T06:53:41;1.30;99.90
5846;DHT22;2949;50.778;7.094;2024-01-15T06:56:08;1.30;99.90
5846;DHT22;2949;50.778;7.094;2024-01-15T06:58:33;1.40;99.90
5846;DHT22;2949;50.778;7.094;2024-01-15T07:00:59;1.30;99.90
5846;DHT22;2949;50.778;7.094;2024-01-15T07:03:25;1.40;99.90
5846;DHT22;2949;50.778;7.094;2024-01-15T07:05:51;1.40;99.90
5846;DHT22;2949;50.778;7.094;2024-01-15T07:08:16;1.40;99.90
5846;DHT22;2949;50.778;7.094;2024-01-15T07:10:42;1.30;99.90
5846;DHT22;2949;50.778;7.094;2024-01-15T07:13:08;1.30;99.90
5846;DHT22;2949;50.778;7.094;2024-01-15T07:15:34;1.30;99.90
5846;DHT22;2949;50.778;7.094;2024-01-15T07:17:59;1.30;99.90
5846;DHT22;2949;50.778;7.094;2024-01-15T07:20:25;1.20;99.90
5846;DHT22;2949;50.778;7.094;2024-01-15T07:22:50;1.20;99.90
5846;DHT22;2949;50.778;7.094;2024-01-15T07:25:16;1.20;99.90
5846;DHT22;2949;50.778;7.094;2024-01-15T07:27:42;1.20;99.90
5846;DHT22;2949;50.778;7.094;2024-01-15T07:30:11;1.20;99.90
5846;DHT22;2949;50.778;7.094;2024-01-15T07:32:36;1.20;99.90
5846;DHT22;2949;50.778;7.094;2024-01-15T07:35:02;1.30;99.90
5846;DHT22;2949;50.778;7.094;2024-01-15T07:37:28;1.30;99.90
5846;DHT22;2949;50.778;7.094;2024-01-15T07:39:53;1.30;99.90
5846;DHT22;2949;50.778;7.094;2024-01-15T07:42:19;1.30;99.90
5846;DHT22;2949;50.778;7.094;2024-01-15T07:44:44;1.30;99.90
5846;DHT22;2949;50.778;7.094;2024-01-15T07:47:10;1.30;99.90
5846;DHT22;2949;50.778;7.094;2024-01-15T07:49:35;1.40;99.90
5846;DHT22;2949;50.778;7.094;2024-01-15T07:52:01;1.40;99.90
5846;DHT22;2949;50.778;7.094;2024-01-15T07:54:27;1.30;99.90
5846;DHT22;2949;50.778;7.094;2024-01-15T07:57:00;1.30;99.90
5846;DHT22;2949;50.778;7.094;2024-01-15T07:59:26;1.30;99.90
5846;DHT22;2949;50.778;7.094;2024-01-15T08:01:52;1.30;99.90
5846;DHT22;2949;50.778;7.094;2024-01-15T08:04:18;1.40;99.90
5846;DHT22;2949;50.778;7.094;2024-01-15T08:06:44;1.40;99.90
5846;DHT22;2949;50.778;7.094;2024-01-15T08:09:10;1.40;99.90
5846;DHT22;2949;50.778;7.094;2024-01-15T08:11:36;1.40;99.90
5846;DHT22;2949;50.778;7.094;2024-01-15T08:14:02;1.50;99.90
5846;DHT22;2949;50.778;7.094;2024-01-15T08:16:27;1.50;99.90
5846;DHT22;2949;50.778;7.094;2024-01-15T08:18:53;1.50;99.90
5846;DHT22;2949;50.778;7.094;2024-01-15T08:21:19;1.50;99.90
5846;DHT22;2949;50.778;7.094;2024-01-15T08:23:44;1.60;99.90
5846;DHT22;2949;50.778;7.094;2024-01-15T08:26:10;1.70;99.90
5846;DHT22;2949;50.778;7.094;2024-01-15T08:28:36;1.70;99.90
5846;DHT22;2949;50.778;7.094;2024-01-15T08:31:02;1.80;99.90
5846;DHT22;2949;50.778;7.094;2024-01-15T08:33:28;1.80;99.90
5846;DHT22;2949;50.778;7.094;2024-01-15T08:35:54;1.90;99.90
5846;DHT22;2949;50.778;7.094;2024-01-15T08:38:20;2.00;99.90
5846;DHT22;2949;50.778;7.094;2024-01-15T08:40:45;2.00;99.90
5846;DHT22;2949;50.778;7.094;2024-01-15T08:43:11;2.00;99.90
5846;DHT22;2949;50.778;7.094;2024-01-15T08:45:37;2.00;99.90
5846;DHT22;2949;50.778;7.094;2024-01-15T08:48:02;2.00;99.90
5846;DHT22;2949;50.778;7.094;2024-01-15T08:50:30;2.00;99.90
5846;DHT22;2949;50.778;7.094;2024-01-15T08:52:57;2.00;99.90
5846;DHT22;2949;50.778;7.094;2024-01-15T08:55:22;2.00;99.90
5846;DHT22;2949;50.778;7.094;2024-01-15T08:57:48;2.00;99.90
5846;DHT22;2949;50.778;7.094;2024-01-15T09:00:14;2.00;99.90
5846;DHT22;2949;50.778;7.094;2024-01-15T09:02:40;2.00;99.90
5846;DHT22;2949;50.778;7.094;2024-01-15T09:05:06;2.00;99.90
5846;DHT22;2949;50.778;7.094;2024-01-15T09:07:32;2.00;99.90
5846;DHT22;2949;50.778;7.094;2024-01-15T09:09:57;2.10;99.90
5846;DHT22;2949;50.778;7.094;2024-01-15T09:12:25;2.10;99.90
5846;DHT22;2949;50.778;7.094;2024-01-15T09:14:51;2.10;99.90
5846;DHT22;2949;50.778;7.094;2024-01-15T09:17:17;2.20;99.90
5846;DHT22;2949;50.778;7.094;2024-01-15T09:19:43;2.20;99.90
5846;DHT22;2949;50.778;7.094;2024-01-15T09:22:08;2.20;99.90
5846;DHT22;2949;50.778;7.094;2024-01-15T09:24:34;2.20;99.90
5846;DHT22;2949;50.778;7.094;2024-01-15T09:26:59;2.30;99.90
5846;DHT22;2949;50.778;7.094;2024-01-15T09:29:25;2.30;99.90
5846;DHT22;2949;50.778;7.094;2024-01-15T09:31:51;2.30;99.90
5846;DHT22;2949;50.778;7.094;2024-01-15T09:34:17;2.40;99.90
5846;DHT22;2949;50.778;7.094;2024-01-15T09:36:43;2.40;99.90
5846;DHT22;2949;50.778;7.094;2024-01-15T09:39:09;2.40;99.90
5846;DHT22;2949;50.778;7.094;2024-01-15T09:41:37;2.30;99.90
5846;DHT22;2949;50.778;7.094;2024-01-15T09:44:03;2.30;99.90
5846;DHT22;2949;50.778;7.094;2024-01-15T09:46:31;2.30;99.90
5846;DHT22;2949;50.778;7.094;2024-01-15T09:48:56;2.20;99.90
5846;DHT22;2949;50.778;7.094;2024-01-15T09:51:22;2.10;99.90
5846;DHT22;2949;50.778;7.094;2024-01-15T09:53:50;2.10;99.90
5846;DHT22;2949;50.778;7.094;2024-01-15T09:56:16;2.00;99.90
5846;DHT22;2949;50.778;7.094;2024-01-15T09:58:42;2.00;99.90
5846;DHT22;2949;50.778;7.094;2024-01-15T10:01:08;1.90;99.90
5846;DHT22;2949;50.778;7.094;2024-01-15T10:03:34;1.80;99.90
5846;DHT22;2949;50.778;7.094;2024-01-15T10:06:00;1.80;99.90
5846;DHT22;2949;50.778;7.094;2024-01-15T10:08:27;1.80;99.90
5846;DHT22;2949;50.778;7.094;2024-01-15T10:10:52;1.80;99.90
5846;DHT22;2949;50.778;7.094;2024-01-15T10:13:18;1.60;99.90
5846;DHT22;2949;50.778;7.094;2024-01-15T10:15:47;1.50;99.90
5846;DHT22;2949;50.778;7.094;2024-01-15T10:18:13;1.50;99.90
5846;DHT22;2949;50.778;7.094;2024-01-15T10:20:39;1.50;99.90
5846;DHT22;2949;50.778;7.094;2024-01-15T10:23:05;1.40;99.90
5846;DHT22;2949;50.778;7.094;2024-01-15T10:25:30;1.30;99.90
5846;DHT22;2949;50.778;7.094;2024-01-15T10:28:00;1.40;99.90
5846;DHT22;2949;50.778;7.094;2024-01-15T10:30:26;1.50;99.90
5846;DHT22;2949;50.778;7.094;2024-01-15T10:33:03;1.60;99.90
5846;DHT22;2949;50.778;7.094;2024-01-15T10:35:33;1.60;99.90
5846;DHT22;2949;50.778;7.094;2024-01-15T10:38:02;1.60;99.90
5846;DHT22;2949;50.778;7.094;2024-01-15T10:40:29;1.60;99.90
5846;DHT22;2949;50.778;7.094;2024-01-15T10:42:54;1.60;99.90
5846;DHT22;2949;50.778;7.094;2024-01-15T10:45:20;1.50;99.90
5846;DHT22;2949;50.778;7.094;2024-01-15T10:47:46;1.50;99.90
5846;DHT22;2949;50.778;7.094;2024-01-15T10:50:12;1.50;99.90
5846;DHT22;2949;50.778;7.094;2024-01-15T10:52:39;1.50;99.90
5846;DHT22;2949;50.778;7.094;2024-01-15T10:55:09;1.40;99.90
5846;DHT22;2949;50.778;7.094;2024-01-15T10:57:38;1.50;99.90
5846;DHT22;2949;50.778;7.094;2024-01-15T11:00:06;1.50;99.90
5846;DHT22;2949;50.778;7.094;2024-01-15T11:02:36;1.50;99.90
5846;DHT22;2949;50.778;7.094;2024-01-15T11:05:03;1.50;99.90
5846;DHT22;2949;50.778;7.094;2024-01-15T11:07:30;1.50;99.90
5846;DHT22;2949;50.778;7.094;2024-01-15T11:09:56;1.50;99.90
5846;DHT22;2949;50.778;7.094;2024-01-15T11:12:23;1.50;99.90
5846;DHT22;2949;50.778;7.094;2024-01-15T11:14:49;1.50;99.90
5846;DHT22;2949;50.778;7.094;2024-01-15T11:17:17;1.40;99.90
5846;DHT22;2949;50.778;7.094;2024-01-15T11:19:49;1.40;99.90
5846;DHT22;2949;50.778;7.094;2024-01-15T11:24:57;1.50;99.90
5846;DHT22;2949;50.778;7.094;2024-01-15T11:27:43;1.50;99.90
5846;DHT22;2949;50.778;7.094;2024-01-15T11:30:09;1.60;99.90
5846;DHT22;2949;50.778;7.094;2024-01-15T11:32:38;1.60;99.90
5846;DHT22;2949;50.778;7.094;2024-01-15T11:35:07;1.70;99.90
5846;DHT22;2949;50.778;7.094;2024-01-15T11:40:22;1.80;99.90
5846;DHT22;2949;50.778;7.094;2024-01-15T11:42:48;1.80;99.90
5846;DHT22;2949;50.778;7.094;2024-01-15T11:45:19;1.80;99.90
5846;DHT22;2949;50.778;7.094;2024-01-15T11:48:12;1.80;99.90
5846;DHT22;2949;50.778;7.094;2024-01-15T11:50:47;1.90;99.90
5846;DHT22;2949;50.778;7.094;2024-01-15T11:53:54;1.90;99.90
5846;DHT22;2949;50.778;7.094;2024-01-15T11:56:16;1.90;99.90
5846;DHT22;2949;50.778;7.094;2024-01-15T11:58:42;1.90;99.90
5846;DHT22;2949;50.778;7.094;2024-01-15T12:01:10;1.90;99.90
5846;DHT22;2949;50.778;7.094;2024-01-15T12:03:35;1.90;99.90
5846;DHT22;2949;50.778;7.094;2024-01-15T12:06:01;1.90;99.90
5846;DHT22;2949;50.778;7.094;2024-01-15T12:08:27;1.90;99.90
5846;DHT22;2949;50.778;7.094;2024-01-15T12:10:53;1.90;99.90
5846;DHT22;2949;50.778;7.094;2024-01-15T12:13:19;1.90;99.90
5846;DHT22;2949;50.778;7.094;2024-01-15T12:15:46;2.00;99.90
5846;DHT22;2949;50.778;7.094;2024-01-15T12:18:14;2.10;99.90
5846;DHT22;2949;50.778;7.094;2024-01-15T12:20:40;2.00;99.90
5846;DHT22;2949;50.778;7.094;2024-01-15T12:23:05;2.10;99.90
5846;DHT22;2949;50.778;7.094;2024-01-15T12:25:32;2.10;99.90
5846;DHT22;2949;50.778;7.094;2024-01-15T12:27:59;2.10;99.90
5846;DHT22;2949;50.778;7.094;2024-01-15T12:30:29;2.10;99.90
5846;DHT22;2949;50.778;7.094;2024-01-15T12:32:57;2.20;99.90
5846;DHT22;2949;50.778;7.094;2024-01-15T12:35:24;2.40;99.90
5846;DHT22;2949;50.778;7.094;2024-01-15T12:37:54;2.60;99.90
5846;DHT22;2949;50.778;7.094;2024-01-15T12:40:19;2.70;99.90
5846;DHT22;2949;50.778;7.094;2024-01-15T12:42:45;2.80;99.90
5846;DHT22;2949;50.778;7.094;2024-01-15T12:45:12;2.90;99.90
5846;DHT22;2949;50.778;7.094;2024-01-15T12:47:38;3.00;99.90
5846;DHT22;2949;50.778;7.094;2024-01-15T12:50:11;3.20;99.90
5846;DHT22;2949;50.778;7.094;2024-01-15T12:52:37;3.30;99.90
5846;DHT22;2949;50.778;7.094;2024-01-15T12:55:06;3.30;99.90
5846;DHT22;2949;50.778;7.094;2024-01-15T12:57:34;3.10;99.90
5846;DHT22;2949;50.778;7.094;2024-01-15T13:00:00;2.80;99.90
5846;DHT22;2949;50.778;7.094;2024-01-15T13:02:25;2.60;99.90
5846;DHT22;2949;50.778;7.094;2024-01-15T13:04:51;2.60;99.90
5846;DHT22;2949;50.778;7.094;2024-01-15T13:07:17;2.60;99.90
5846;DHT22;2949;50.778;7.094;2024-01-15T13:09:43;2.70;99.90
5846;DHT22;2949;50.778;7.094;2024-01-15T13:12:08;2.70;99.90
5846;DHT22;2949;50.778;7.094;2024-01-15T13:14:34;2.70;99.90
5846;DHT22;2949;50.778;7.094;2024-01-15T13:17:00;2.70;99.90
5846;DHT22;2949;50.778;7.094;2024-01-15T13:19:26;2.70;99.90
5846;DHT22;2949;50.778;7.094;2024-01-15T13:21:51;3.00;99.90
5846;DHT22;2949;50.778;7.094;2024-01-15T13:24:18;3.30;99.90
5846;DHT22;2949;50.778;7.094;2024-01-15T13:26:44;3.40;99.90
5846;DHT22;2949;50.778;7.094;2024-01-15T13:29:09;3.50;99.90
5846;DHT22;2949;50.778;7.094;2024-01-15T13:31:35;3.60;99.90
5846;DHT22;2949;50.778;7.094;2024-01-15T13:34:01;3.60;99.90
5846;DHT22;2949;50.778;7.094;2024-01-15T13:36:27;3.40;99.90
5846;DHT22;2949;50.778;7.094;2024-01-15T13:38:53;3.20;99.90
5846;DHT22;2949;50.778;7.094;2024-01-15T13:41:19;3.10;99.90
5846;DHT22;2949;50.778;7.094;2024-01-15T13:43:49;3.00;99.90
5846;DHT22;2949;50.778;7.094;2024-01-15T13:46:16;2.80;99.90
5846;DHT22;2949;50.778;7.094;2024-01-15T13:48:42;2.70;99.90
5846;DHT22;2949;50.778;7.094;2024-01-15T13:51:08;2.60;99.90
5846;DHT22;2949;50.778;7.094;2024-01-15T13:53:34;2.60;99.90
5846;DHT22;2949;50.778;7.094;2024-01-15T13:55:59;2.60;99.90
5846;DHT22;2949;50.778;7.094;2024-01-15T13:58:25;2.60;99.90
5846;DHT22;2949;50.778;7.094;2024-01-15T14:00:51;2.60;99.90
5846;DHT22;2949;50.778;7.094;2024-01-15T14:03:17;2.60;99.90
5846;DHT22;2949;50.778;7.094;2024-01-15T14:05:43;2.50;99.90
5846;DHT22;2949;50.778;7.094;2024-01-15T14:08:08;2.40;99.90
5846;DHT22;2949;50.778;7.094;2024-01-15T14:10:34;2.40;99.90
5846;DHT22;2949;50.778;7.094;2024-01-15T14:12:59;2.30;99.90
5846;DHT22;2949;50.778;7.094;2024-01-15T14:15:25;2.30;99.90
5846;DHT22;2949;50.778;7.094;2024-01-15T14:17:52;2.30;99.90
5846;DHT22;2949;50.778;7.094;2024-01-15T14:20:18;2.40;99.90
5846;DHT22;2949;50.778;7.094;2024-01-15T14:22:43;2.50;99.90
5846;DHT22;2949;50.778;7.094;2024-01-15T14:25:09;2.50;99.90
5846;DHT22;2949;50.778;7.094;2024-01-15T14:27:35;2.50;99.90
5846;DHT22;2949;50.778;7.094;2024-01-15T14:30:01;2.50;99.90
5846;DHT22;2949;50.778;7.094;2024-01-15T14:32:27;2.30;99.90
5846;DHT22;2949;50.778;7.094;2024-01-15T14:34:52;2.20;99.90
5846;DHT22;2949;50.778;7.094;2024-01-15T14:37:18;2.10;99.90
5846;DHT22;2949;50.778;7.094;2024-01-15T14:39:43;2.10;99.90
5846;DHT22;2949;50.778;7.094;2024-01-15T14:42:09;2.10;99.90
5846;DHT22;2949;50.778;7.094;2024-01-15T14:44:34;2.00;99.90
5846;DHT22;2949;50.778;7.094;2024-01-15T14:47:00;2.00;99.90
5846;DHT22;2949;50.778;7.094;2024-01-15T14:49:25;2.00;99.90
5846;DHT22;2949;50.778;7.094;2024-01-15T14:51:51;1.90;99.90
5846;DHT22;2949;50.778;7.094;2024-01-15T14:54:17;1.90;99.90
5846;DHT22;2949;50.778;7.094;2024-01-15T14:56:42;1.80;99.90
5846;DHT22;2949;50.778;7.094;2024-01-15T14:59:08;1.70;99.90
5846;DHT22;2949;50.778;7.094;2024-01-15T15:01:34;1.60;99.90
5846;DHT22;2949;50.778;7.094;2024-01-15T15:03:59;1.50;99.90
5846;DHT22;2949;50.778;7.094;2024-01-15T15:06:25;1.50;99.90
5846;DHT22;2949;50.778;7.094;2024-01-15T15:08:53;1.40;99.90
5846;DHT22;2949;50.778;7.094;2024-01-15T15:11:20;1.40;99.90
5846;DHT22;2949;50.778;7.094;2024-01-15T15:13:48;1.40;99.90
5846;DHT22;2949;50.778;7.094;2024-01-15T15:16:15;1.40;99.90
5846;DHT22;2949;50.778;7.094;2024-01-15T15:18:40;1.30;99.90
5846;DHT22;2949;50.778;7.094;2024-01-15T15:21:08;1.40;99.90
5846;DHT22;2949;50.778;7.094;2024-01-15T15:23:33;1.40;99.90
5846;DHT22;2949;50.778;7.094;2024-01-15T15:25:59;1.40;99.90
5846;DHT22;2949;50.778;7.094;2024-01-15T15:28:24;1.40;99.90
5846;DHT22;2949;50.778;7.094;2024-01-15T15:30:50;1.40;99.90
5846;DHT22;2949;50.778;7.094;2024-01-15T15:33:16;1.40;99.90
5846;DHT22;2949;50.778;7.094;2024-01-15T15:35:41;1.30;99.90
5846;DHT22;2949;50.778;7.094;2024-01-15T15:38:07;1.30;99.90
5846;DHT22;2949;50.778;7.094;2024-01-15T15:40:32;1.30;99.90
5846;DHT22;2949;50.778;7.094;2024-01-15T15:42:58;1.30;99.90
5846;DHT22;2949;50.778;7.094;2024-01-15T15:45:23;1.30;99.90
5846;DHT22;2949;50.778;7.094;2024-01-15T15:47:49;1.30;99.90
5846;DHT22;2949;50.778;7.094;2024-01-15T15:50:15;1.30;99.90
5846;DHT22;2949;50.778;7.094;2024-01-15T15:52:40;1.30;99.90
5846;DHT22;2949;50.778;7.094;2024-01-15T15:55:06;1.30;99.90
5846;DHT22;2949;50.778;7.094;2024-01-15T15:57:33;1.20;99.90
5846;DHT22;2949;50.778;7.094;2024-01-15T15:59:58;1.20;99.90
5846;DHT22;2949;50.778;7.094;2024-01-15T16:02:24;1.20;99.90
5846;DHT22;2949;50.778;7.094;2024-01-15T16:04:49;1.10;99.90
5846;DHT22;2949;50.778;7.094;2024-01-15T16:07:15;1.10;99.90
5846;DHT22;2949;50.778;7.094;2024-01-15T16:09:41;1.10;99.90
5846;DHT22;2949;50.778;7.094;2024-01-15T16:12:07;1.10;99.90
5846;DHT22;2949;50.778;7.094;2024-01-15T16:14:34;1.10;99.90